Time;durP1;ratioP1;P1;durP2;ratioP2;P2;SDS_P1;SDS_P2;PMS_P1;PMS_P2;Temp;Humidity;BMP_temperature;BMP_pressure;BME280_temperature;BME280_humidity;BME280_pressure;Samples;Min_cycle;Max_cycle;Signal;HPM_P1;HPM_P2
2022/04/27 00:00:25;;;;;;;11.73;10.53;;;9.00;99.90;;;;;;4969868;28;20474;-67
2022/04/27 00:02:51;;;;;;;11.43;10.23;;;9.10;99.90;;;;;;4967918;28;20246;-67
2022/04/27 00:05:17;;;;;;;10.13;9.13;;;9.10;99.90;;;;;;4970539;28;20215;-67
2022/04/27 00:07:42;;;;;;;12.50;10.17;;;9.20;99.90;;;;;;4969661;28;20447;-67
2022/04/27 00:10:08;;;;;;;10.30;9.30;;;9.30;99.90;;;;;;4970004;28;20439;-68
2022/04/27 00:12:34;;;;;;;11.20;10.03;;;9.40;99.90;;;;;;4971905;28;20184;-66
2022/04/27 00:15:00;;;;;;;13.30;10.27;;;9.20;99.90;;;;;;4969734;28;20582;-66
2022/04/27 00:17:25;;;;;;;13.03;10.77;;;9.20;99.90;;;;;;4972035;28;20449;-67
2022/04/27 00:19:51;;;;;;;11.97;9.43;;;9.20;99.90;;;;;;4970468;28;20234;-67
2022/04/27 00:22:17;;;;;;;13.00;10.50;;;9.10;99.90;;;;;;4970053;28;20191;-66
2022/04/27 00:24:42;;;;;;;12.43;11.10;;;9.00;99.90;;;;;;4970780;28;20226;-67
2022/04/27 00:27:08;;;;;;;12.60;11.30;;;9.00;99.90;;;;;;4971118;28;20180;-66
2022/04/27 00:29:34;;;;;;;15.00;12.43;;;9.00;99.90;;;;;;4970502;28;20280;-67
2022/04/27 00:31:59;;;;;;;14.50;12.97;;;9.00;99.90;;;;;;4974245;28;20199;-67
2022/04/27 00:34:25;;;;;;;13.77;11.90;;;9.10;99.90;;;;;;4974682;28;20212;-66
2022/04/27 00:36:50;;;;;;;16.10;13.70;;;9.20;99.90;;;;;;4975772;28;20235;-68
2022/04/27 00:39:17;;;;;;;14.27;12.77;;;9.10;99.90;;;;;;4973250;28;20216;-66
2022/04/27 00:41:59;;;;;;;15.07;13.10;;;9.10;99.90;;;;;;4973536;28;20597;-68
2022/04/27 00:44:33;;;;;;;13.70;12.30;;;9.00;99.90;;;;;;4974645;28;20984;-67
2022/04/27 00:47:01;;;;;;;12.67;11.37;;;9.10;99.90;;;;;;4958292;28;20453;-67
2022/04/27 00:49:27;;;;;;;13.80;12.40;;;9.10;99.90;;;;;;4974864;28;20946;-67
2022/04/27 00:51:54;;;;;;;13.83;12.07;;;9.00;99.90;;;;;;4973943;28;20478;-67
2022/04/27 00:54:22;;;;;;;14.90;13.37;;;9.00;99.90;;;;;;4974139;28;20204;-67
2022/04/27 00:56:48;;;;;;;15.13;13.57;;;8.90;99.90;;;;;;4975380;28;20458;-67
2022/04/27 00:59:14;;;;;;;15.30;12.47;;;8.90;99.90;;;;;;4974062;28;20533;-67
2022/04/27 01:01:40;;;;;;;15.63;13.30;;;8.90;99.90;;;;;;4973764;28;20850;-68
2022/04/27 01:04:07;;;;;;;16.57;13.33;;;8.90;99.90;;;;;;4973343;28;20604;-67
2022/04/27 01:06:34;;;;;;;17.93;15.97;;;8.90;99.90;;;;;;4975031;28;20247;-67
2022/04/27 01:08:59;;;;;;;17.53;15.57;;;8.70;99.90;;;;;;4971899;28;20475;-67
2022/04/27 01:11:25;;;;;;;18.03;15.50;;;8.70;99.90;;;;;;4973076;28;20485;-67
2022/04/27 01:13:50;;;;;;;18.33;15.00;;;8.70;99.90;;;;;;4972060;28;20189;-67
2022/04/27 01:16:16;;;;;;;19.27;15.90;;;8.80;99.90;;;;;;4971477;28;20172;-68
2022/04/27 01:18:42;;;;;;;20.03;17.00;;;8.90;99.90;;;;;;4974646;28;20195;-67
2022/04/27 01:21:08;;;;;;;18.70;16.43;;;8.90;99.90;;;;;;4972036;28;20183;-67
2022/04/27 01:23:33;;;;;;;20.00;16.20;;;8.90;99.90;;;;;;4972143;28;20572;-67
2022/04/27 01:26:06;;;;;;;18.97;16.30;;;8.90;99.90;;;;;;4971797;28;20270;-67
2022/04/27 01:28:33;;;;;;;18.70;16.20;;;9.00;99.90;;;;;;4974597;28;20183;-67
2022/04/27 01:31:01;;;;;;;19.33;17.27;;;9.00;99.90;;;;;;4972539;28;20443;-67
2022/04/27 01:33:29;;;;;;;18.90;16.37;;;9.10;99.90;;;;;;4972655;28;20439;-66
2022/04/27 01:35:55;;;;;;;18.50;16.50;;;9.10;99.90;;;;;;4974369;28;20972;-67
2022/04/27 01:38:20;;;;;;;19.47;16.00;;;9.10;99.90;;;;;;4972081;28;20447;-67
2022/04/27 01:40:47;;;;;;;20.80;17.07;;;9.00;99.90;;;;;;4974230;28;20204;-66
2022/04/27 01:43:16;;;;;;;20.17;17.43;;;9.00;99.90;;;;;;4970489;28;20176;-67
2022/04/27 01:45:43;;;;;;;20.47;17.07;;;9.10;99.90;;;;;;4974448;28;20481;-67
2022/04/27 01:48:10;;;;;;;19.00;15.90;;;9.10;99.90;;;;;;4973490;28;20447;-69
2022/04/27 01:50:35;;;;;;;19.10;15.30;;;9.20;99.90;;;;;;4973035;28;20836;-67
2022/04/27 01:55:45;;;;;;;19.00;16.23;;;9.20;99.90;;;;;;4973124;28;20255;-67
2022/04/27 01:58:10;;;;;;;22.70;17.40;;;9.30;99.90;;;;;;4970007;28;20991;-69
2022/04/27 02:00:38;;;;;;;21.23;16.60;;;9.30;99.90;;;;;;4971113;28;20232;-67
2022/04/27 02:03:03;;;;;;;19.77;17.67;;;9.30;99.90;;;;;;4972314;28;20234;-66
2022/04/27 02:05:29;;;;;;;21.83;16.73;;;9.30;99.90;;;;;;4973474;28;20451;-69
2022/04/27 02:07:54;;;;;;;20.50;17.67;;;9.30;99.90;;;;;;4972740;28;20169;-67
2022/04/27 02:10:20;;;;;;;20.30;16.87;;;9.30;99.90;;;;;;4974741;28;20177;-67
2022/04/27 02:12:45;;;;;;;20.77;18.20;;;9.30;99.90;;;;;;4967502;28;20203;-66
2022/04/27 02:15:11;;;;;;;20.60;18.13;;;9.40;99.90;;;;;;4973737;28;20278;-67
2022/04/27 02:17:37;;;;;;;21.23;18.87;;;9.40;99.90;;;;;;4972737;28;20198;-66
2022/04/27 02:20:04;;;;;;;22.87;19.47;;;9.40;99.90;;;;;;4971678;28;20200;-67
2022/04/27 02:22:33;;;;;;;23.60;20.00;;;9.30;99.90;;;;;;4970754;28;20176;-68
2022/04/27 02:24:59;;;;;;;25.87;21.17;;;9.40;99.90;;;;;;4972484;28;20475;-68
2022/04/27 02:27:25;;;;;;;25.90;21.93;;;9.30;99.90;;;;;;4972587;28;20531;-67
2022/04/27 02:29:51;;;;;;;26.67;21.17;;;9.40;99.90;;;;;;4973325;28;20980;-66
2022/04/27 02:32:18;;;;;;;25.10;20.23;;;9.40;99.90;;;;;;4972136;28;20181;-68
2022/04/27 02:34:44;;;;;;;25.43;20.63;;;9.40;99.90;;;;;;4973382;28;20590;-67
2022/04/27 02:37:09;;;;;;;29.23;21.90;;;9.40;99.90;;;;;;4969777;28;20996;-67
2022/04/27 02:39:35;;;;;;;29.33;21.83;;;9.40;99.90;;;;;;4972496;28;20295;-66
2022/04/27 02:42:00;;;;;;;25.63;21.17;;;9.40;99.90;;;;;;4972083;28;20176;-67
2022/04/27 02:44:25;;;;;;;23.50;19.00;;;9.40;99.90;;;;;;4973248;28;20223;-68
2022/04/27 02:46:51;;;;;;;23.93;19.87;;;9.30;99.90;;;;;;4971415;28;20549;-66
2022/04/27 02:52:01;;;;;;;23.87;20.70;;;9.30;99.90;;;;;;4973215;28;20564;-67
2022/04/27 02:54:26;;;;;;;25.30;20.77;;;9.30;99.90;;;;;;4971853;28;20458;-67
2022/04/27 02:56:52;;;;;;;24.90;19.10;;;9.30;99.90;;;;;;4973076;28;20658;-67
2022/04/27 02:59:18;;;;;;;25.30;20.27;;;9.20;99.90;;;;;;4968816;28;20773;-67
2022/04/27 03:01:43;;;;;;;26.00;20.37;;;9.20;99.90;;;;;;4970715;28;20172;-67
2022/04/27 03:04:09;;;;;;;23.30;19.67;;;9.20;99.90;;;;;;4971697;28;20200;-67
2022/04/27 03:06:36;;;;;;;24.23;19.73;;;9.20;99.90;;;;;;4973105;28;20587;-68
2022/04/27 03:09:01;;;;;;;24.83;18.70;;;9.30;99.90;;;;;;4970785;28;20443;-69
2022/04/27 03:11:27;;;;;;;25.00;19.50;;;9.30;99.90;;;;;;4971371;28;20937;-67
2022/04/27 03:13:53;;;;;;;28.33;20.80;;;9.30;99.90;;;;;;4971587;28;20184;-67
2022/04/27 03:16:18;;;;;;;22.77;20.30;;;9.30;99.90;;;;;;4972280;28;20176;-67
2022/04/27 03:18:44;;;;;;;25.13;20.27;;;9.30;99.90;;;;;;4969319;28;20196;-67
2022/04/27 03:21:10;;;;;;;25.60;20.70;;;9.30;99.90;;;;;;4972468;28;20208;-67
2022/04/27 03:23:36;;;;;;;27.27;20.77;;;9.40;99.90;;;;;;4971523;28;20187;-67
2022/04/27 03:26:02;;;;;;;23.10;20.23;;;9.40;99.90;;;;;;4966478;28;20477;-68
2022/04/27 03:28:27;;;;;;;22.83;18.60;;;9.40;99.90;;;;;;4967655;28;20180;-67
2022/04/27 03:30:53;;;;;;;25.03;18.93;;;9.40;99.90;;;;;;4970710;28;20458;-67
2022/04/27 03:33:18;;;;;;;22.43;18.77;;;9.40;99.90;;;;;;4972544;28;20210;-68
2022/04/27 03:35:44;;;;;;;25.00;18.80;;;9.30;99.90;;;;;;4970887;28;20598;-67
2022/04/27 03:38:10;;;;;;;21.57;17.07;;;9.30;99.90;;;;;;4972281;28;20192;-68
2022/04/27 03:40:36;;;;;;;22.30;16.80;;;9.30;99.90;;;;;;4970185;28;20426;-67
2022/04/27 03:43:02;;;;;;;22.67;17.87;;;9.20;99.90;;;;;;4972448;28;20198;-67
2022/04/27 03:45:27;;;;;;;21.77;17.97;;;9.30;99.90;;;;;;4970885;28;20978;-67
2022/04/27 03:47:53;;;;;;;21.47;18.20;;;9.30;99.90;;;;;;4972407;28;20186;-67
2022/04/27 03:50:19;;;;;;;22.40;18.90;;;9.30;99.90;;;;;;4970551;28;20553;-67
2022/04/27 03:52:44;;;;;;;20.10;18.00;;;9.30;99.90;;;;;;4971322;28;20202;-66
2022/04/27 03:55:11;;;;;;;23.20;18.80;;;9.20;99.90;;;;;;4972430;28;20212;-67
2022/04/27 03:57:39;;;;;;;20.73;17.20;;;9.30;99.90;;;;;;4971068;28;20435;-67
2022/04/27 04:00:07;;;;;;;20.33;17.83;;;9.30;99.90;;;;;;4971121;28;20467;-67
2022/04/27 04:02:32;;;;;;;26.10;17.87;;;9.30;99.90;;;;;;4970378;28;20440;-67
2022/04/27 04:04:59;;;;;;;18.77;16.50;;;9.30;99.90;;;;;;4964466;28;20454;-68
2022/04/27 04:07:24;;;;;;;21.90;17.40;;;9.30;99.90;;;;;;4970294;28;20435;-68
2022/04/27 04:09:50;;;;;;;20.73;18.47;;;9.20;99.90;;;;;;4971867;28;20510;-67
2022/04/27 04:12:15;;;;;;;21.07;17.17;;;9.20;99.90;;;;;;4969917;28;20748;-67
2022/04/27 04:14:41;;;;;;;21.87;16.20;;;9.20;99.90;;;;;;4971827;28;20204;-68
2022/04/27 04:17:06;;;;;;;20.63;16.90;;;9.30;99.90;;;;;;4971075;28;20540;-67
2022/04/27 04:19:32;;;;;;;19.03;16.60;;;9.20;99.90;;;;;;4970795;28;20262;-67
2022/04/27 04:21:59;;;;;;;19.83;16.23;;;9.30;99.90;;;;;;4971912;28;20681;-68
2022/04/27 04:24:25;;;;;;;22.20;17.03;;;9.30;99.90;;;;;;4968966;28;20571;-68
2022/04/27 04:29:34;;;;;;;20.17;16.57;;;9.40;99.90;;;;;;4971202;28;20717;-67
2022/04/27 04:32:00;;;;;;;21.23;17.43;;;9.40;99.90;;;;;;4971287;28;20530;-67
2022/04/27 04:34:25;;;;;;;18.63;16.60;;;9.40;99.90;;;;;;4969126;28;20216;-67
2022/04/27 04:36:51;;;;;;;20.00;16.43;;;9.40;99.90;;;;;;4971008;28;20192;-67
2022/04/27 04:39:16;;;;;;;21.10;16.07;;;9.40;99.90;;;;;;4969788;28;20204;-67
2022/04/27 04:41:42;;;;;;;19.60;15.50;;;9.40;99.90;;;;;;4969286;28;20692;-66
2022/04/27 04:44:07;;;;;;;22.77;17.07;;;9.30;99.90;;;;;;4970486;28;20192;-68
2022/04/27 04:46:33;;;;;;;22.23;17.97;;;9.40;99.90;;;;;;4969027;28;20183;-67
2022/04/27 04:48:58;;;;;;;20.30;16.63;;;9.30;99.90;;;;;;4968506;28;20556;-67
2022/04/27 04:51:24;;;;;;;19.47;15.87;;;9.30;99.90;;;;;;4966286;28;20619;-68
2022/04/27 04:53:49;;;;;;;23.23;18.20;;;9.40;99.90;;;;;;4968754;28;20610;-67
2022/04/27 04:56:15;;;;;;;20.43;16.53;;;9.40;99.90;;;;;;4970945;28;20267;-67
2022/04/27 04:58:40;;;;;;;19.23;16.60;;;9.50;99.90;;;;;;4968287;28;20259;-68
2022/04/27 05:01:06;;;;;;;19.73;17.17;;;9.50;99.90;;;;;;4969961;28;20204;-66
2022/04/27 05:03:36;;;;;;;19.10;16.00;;;9.60;99.90;;;;;;4970993;28;20180;-67
2022/04/27 05:06:02;;;;;;;19.37;15.73;;;9.70;99.90;;;;;;4969162;28;20207;-68
2022/04/27 05:08:27;;;;;;;19.63;15.67;;;9.70;99.90;;;;;;4970523;28;20435;-68
2022/04/27 05:10:53;;;;;;;19.63;16.37;;;9.60;99.90;;;;;;4967399;28;20572;-67
2022/04/27 05:13:19;;;;;;;19.80;16.23;;;9.60;99.90;;;;;;4969741;28;20184;-67
2022/04/27 05:15:45;;;;;;;20.13;16.70;;;9.70;99.90;;;;;;4970410;28;20470;-67
2022/04/27 05:18:10;;;;;;;19.63;16.40;;;9.70;99.90;;;;;;4969367;28;20561;-68
2022/04/27 05:20:38;;;;;;;16.90;15.10;;;9.70;99.90;;;;;;4973258;28;20212;-67
2022/04/27 05:23:03;;;;;;;22.10;18.37;;;9.80;99.90;;;;;;4973956;28;20713;-66
2022/04/27 05:25:29;;;;;;;20.63;15.47;;;9.80;99.90;;;;;;4972891;28;20606;-68
2022/04/27 05:27:55;;;;;;;20.77;16.77;;;9.80;99.90;;;;;;4973194;28;20242;-67
2022/04/27 05:33:04;;;;;;;18.63;16.13;;;9.80;99.90;;;;;;4969482;28;20199;-67
2022/04/27 05:35:30;;;;;;;18.37;16.43;;;9.80;99.90;;;;;;4971878;28;20455;-67
2022/04/27 05:37:55;;;;;;;20.93;16.37;;;9.70;99.90;;;;;;4974101;28;20638;-67
2022/04/27 05:40:21;;;;;;;19.27;15.87;;;9.70;99.90;;;;;;4971428;28;20585;-68
2022/04/27 05:42:48;;;;;;;21.67;16.90;;;9.80;99.90;;;;;;4973738;28;20177;-67
2022/04/27 05:45:14;;;;;;;19.80;15.53;;;9.80;99.90;;;;;;4972348;28;20188;-67
2022/04/27 05:47:40;;;;;;;19.17;15.93;;;9.90;99.90;;;;;;4972914;28;20494;-66
2022/04/27 05:50:05;;;;;;;20.10;17.60;;;9.80;99.90;;;;;;4973056;28;20948;-68
2022/04/27 05:52:46;;;;;;;22.57;17.17;;;9.70;99.90;;;;;;4972009;28;20655;-67
2022/04/27 05:55:11;;;;;;;20.30;17.50;;;9.70;99.90;;;;;;4973568;28;20204;-67
2022/04/27 05:57:37;;;;;;;19.73;15.67;;;9.80;99.90;;;;;;4970922;28;20455;-66
2022/04/27 06:00:03;;;;;;;19.00;15.97;;;9.90;99.90;;;;;;4973878;28;20208;-67
2022/04/27 06:02:28;;;;;;;17.63;15.27;;;10.00;99.90;;;;;;4965033;28;20189;-68
2022/04/27 06:04:54;;;;;;;22.37;17.20;;;10.00;99.90;;;;;;4973188;28;20559;-66
2022/04/27 06:07:19;;;;;;;16.87;15.07;;;10.20;99.90;;;;;;4975490;28;20186;-66
2022/04/27 06:09:45;;;;;;;21.37;16.43;;;10.40;99.90;;;;;;4973601;28;20320;-66
2022/04/27 06:12:10;;;;;;;17.20;15.40;;;10.50;99.90;;;;;;4974974;28;20235;-65
2022/04/27 06:14:36;;;;;;;20.57;16.97;;;10.50;99.90;;;;;;4973758;28;20200;-66
2022/04/27 06:17:02;;;;;;;18.10;16.10;;;10.60;99.90;;;;;;4970862;28;20795;-67
2022/04/27 06:19:27;;;;;;;20.10;16.50;;;10.70;99.90;;;;;;4969048;28;20208;-68
2022/04/27 06:21:53;;;;;;;17.53;15.50;;;10.60;99.90;;;;;;4971054;28;20427;-68
2022/04/27 06:24:18;;;;;;;18.43;16.43;;;10.70;99.90;;;;;;4969414;28;20212;-71
2022/04/27 06:26:44;;;;;;;19.57;17.57;;;10.70;99.90;;;;;;4970443;28;20185;-67
2022/04/27 06:29:09;;;;;;;21.97;17.77;;;10.70;99.90;;;;;;4971337;28;20234;-67
2022/04/27 06:31:35;;;;;;;20.23;17.60;;;10.70;99.90;;;;;;4969191;28;20173;-67
2022/04/27 06:34:00;;;;;;;19.53;17.30;;;10.70;99.90;;;;;;4970749;28;20212;-67
2022/04/27 06:36:26;;;;;;;21.00;17.07;;;10.70;99.90;;;;;;4971991;28;20200;-67
2022/04/27 06:38:52;;;;;;;23.40;19.10;;;10.60;99.90;;;;;;4969496;28;20619;-67
2022/04/27 06:41:17;;;;;;;22.07;18.00;;;10.40;99.90;;;;;;4971526;28;20215;-67
2022/04/27 06:43:43;;;;;;;20.80;18.60;;;10.40;99.90;;;;;;4971371;28;20327;-68
2022/04/27 06:46:08;;;;;;;21.63;19.30;;;10.40;99.90;;;;;;4969280;28;20218;-68
2022/04/27 06:48:34;;;;;;;22.87;20.43;;;10.40;99.90;;;;;;4970610;28;20270;-68
2022/04/27 06:50:59;;;;;;;23.00;19.43;;;10.40;99.90;;;;;;4970194;28;20660;-68
2022/04/27 06:53:25;;;;;;;23.23;18.43;;;10.50;99.90;;;;;;4969478;28;20196;-68
2022/04/27 06:55:51;;;;;;;22.07;19.23;;;10.40;99.90;;;;;;4972339;28;20263;-67
2022/04/27 06:58:17;;;;;;;21.17;17.97;;;10.30;99.90;;;;;;4969945;28;20184;-67
2022/04/27 07:00:42;;;;;;;20.57;18.47;;;10.40;99.90;;;;;;4956867;28;20212;-70
2022/04/27 07:03:08;;;;;;;21.63;18.00;;;10.50;99.90;;;;;;4942032;28;20447;-69
2022/04/27 07:05:34;;;;;;;19.80;17.67;;;10.60;99.90;;;;;;4967862;28;20223;-68
2022/04/27 07:07:59;;;;;;;24.67;19.53;;;10.60;99.90;;;;;;4970505;28;20963;-67
2022/04/27 07:10:25;;;;;;;21.87;19.20;;;10.70;99.90;;;;;;4970989;28;20184;-68
2022/04/27 07:12:51;;;;;;;19.23;16.63;;;11.00;99.90;;;;;;4970229;28;20339;-68
2022/04/27 07:15:17;;;;;;;19.40;17.40;;;11.60;99.90;;;;;;4969589;28;20196;-68
2022/04/27 07:17:43;;;;;;;18.47;16.50;;;12.00;99.90;;;;;;4968733;28;20458;-67
2022/04/27 07:20:10;;;;;;;16.47;14.77;;;12.20;99.90;;;;;;4970745;28;20569;-68
2022/04/27 07:22:35;;;;;;;19.93;17.93;;;12.20;99.90;;;;;;4971765;28;20256;-67
2022/04/27 07:25:01;;;;;;;16.80;14.90;;;12.00;99.90;;;;;;4968634;28;20570;-67
2022/04/27 07:27:27;;;;;;;18.57;16.53;;;11.80;99.90;;;;;;4971322;28;20188;-69
2022/04/27 07:29:53;;;;;;;17.43;15.43;;;11.60;99.90;;;;;;4969757;28;20479;-67
2022/04/27 07:32:19;;;;;;;16.57;14.97;;;11.50;99.90;;;;;;4970643;28;20184;-67
2022/04/27 07:34:44;;;;;;;20.33;18.17;;;11.50;99.90;;;;;;4970285;28;20529;-68
2022/04/27 07:37:10;;;;;;;20.00;17.90;;;11.30;99.90;;;;;;4971284;28;20271;-67
2022/04/27 07:39:36;;;;;;;18.07;16.27;;;11.30;99.90;;;;;;4970497;28;20250;-68
2022/04/27 07:42:02;;;;;;;17.80;15.90;;;11.20;99.90;;;;;;4970669;28;20605;-68
2022/04/27 07:44:27;;;;;;;17.77;16.03;;;11.20;99.90;;;;;;4970229;28;20796;-67
2022/04/27 07:46:53;;;;;;;19.07;17.07;;;11.20;99.90;;;;;;4970891;28;20435;-67
2022/04/27 07:49:20;;;;;;;19.20;16.43;;;11.00;99.90;;;;;;4970692;28;20184;-69
2022/04/27 07:51:50;;;;;;;16.60;15.00;;;11.00;99.90;;;;;;4969968;28;20266;-67
2022/04/27 07:54:15;;;;;;;18.20;16.40;;;11.00;99.90;;;;;;4971336;28;20454;-67
2022/04/27 07:56:41;;;;;;;15.90;14.30;;;11.00;99.90;;;;;;4971092;28;21056;-67
2022/04/27 07:59:07;;;;;;;15.40;13.90;;;11.20;99.90;;;;;;4970531;28;20259;-68
2022/04/27 08:01:32;;;;;;;15.07;13.60;;;11.40;99.90;;;;;;4968811;28;20208;-67
2022/04/27 08:03:58;;;;;;;16.27;14.33;;;11.60;99.90;;;;;;4972008;28;20223;-68
2022/04/27 08:06:24;;;;;;;15.70;14.20;;;11.80;99.90;;;;;;4969530;28;20212;-68
2022/04/27 08:08:49;;;;;;;15.57;12.80;;;11.90;99.90;;;;;;4970218;28;20180;-67
2022/04/27 08:11:15;;;;;;;15.43;13.93;;;12.00;99.90;;;;;;4969226;28;20188;-66
2022/04/27 08:13:44;;;;;;;16.13;13.93;;;12.20;99.90;;;;;;4969240;28;20180;-66
2022/04/27 08:16:11;;;;;;;15.20;13.60;;;12.50;99.90;;;;;;4970931;28;20486;-67
2022/04/27 08:18:38;;;;;;;13.53;12.33;;;12.90;99.90;;;;;;4969082;28;20442;-68
2022/04/27 08:21:16;;;;;;;16.13;14.63;;;13.30;99.90;;;;;;4970220;28;20979;-67
2022/04/27 08:23:46;;;;;;;15.00;13.50;;;13.50;99.90;;;;;;4970506;28;20443;-68
2022/04/27 08:26:13;;;;;;;13.03;11.93;;;13.50;99.90;;;;;;4979165;23;20539;-65
2022/04/27 08:28:39;;;;;;;15.13;13.57;;;13.40;99.90;;;;;;4947304;29;20436;-65
2022/04/27 08:31:06;;;;;;;13.57;12.13;;;13.30;99.90;;;;;;4951470;29;20451;-66
2022/04/27 08:33:32;;;;;;;14.80;12.67;;;13.20;99.90;;;;;;4948097;29;20428;-65
2022/04/27 08:35:57;;;;;;;12.53;11.40;;;13.10;99.90;;;;;;4940841;28;20531;-65
2022/04/27 08:38:23;;;;;;;14.27;12.87;;;13.00;99.90;;;;;;4930991;29;20299;-65
2022/04/27 08:40:49;;;;;;;14.03;12.63;;;13.00;99.90;;;;;;4933317;29;20209;-64
2022/04/27 08:43:15;;;;;;;13.43;9.63;;;13.00;99.90;;;;;;4929271;29;20445;-65
2022/04/27 08:45:42;;;;;;;13.13;11.30;;;12.90;99.90;;;;;;4929839;29;20292;-64
2022/04/27 08:48:10;;;;;;;12.10;11.00;;;13.00;99.90;;;;;;4932313;29;20449;-65
2022/04/27 08:50:36;;;;;;;15.07;10.80;;;13.30;99.90;;;;;;4933072;29;20441;-65
2022/04/27 08:53:01;;;;;;;13.00;11.50;;;13.60;99.90;;;;;;4933028;29;20449;-65
2022/04/27 08:55:27;;;;;;;13.00;11.70;;;13.80;99.90;;;;;;4934573;29;20463;-65
2022/04/27 08:57:53;;;;;;;13.20;11.87;;;14.30;99.90;;;;;;4932337;29;20193;-66
2022/04/27 09:00:20;;;;;;;13.80;12.20;;;15.00;99.90;;;;;;4932244;29;20285;-65
2022/04/27 09:02:46;;;;;;;11.80;10.63;;;16.00;99.90;;;;;;4933678;29;20448;-66
2022/04/27 09:05:17;;;;;;;11.67;10.43;;;16.70;99.90;;;;;;4934824;29;20440;-65
2022/04/27 09:07:44;;;;;;;13.03;11.93;;;17.10;99.90;;;;;;4934381;29;20444;-65
2022/04/27 09:10:14;;;;;;;12.73;11.43;;;17.30;99.90;;;;;;4935045;29;20528;-65
2022/04/27 09:12:55;;;;;;;10.50;9.50;;;17.40;99.90;;;;;;4935139;29;20445;-65
2022/04/27 09:15:25;;;;;;;9.43;8.60;;;16.90;99.90;;;;;;4934343;29;20468;-65
2022/04/27 09:20:47;;;;;;;11.30;10.20;;;16.30;99.90;;;;;;4932456;29;21005;-65
2022/04/27 09:23:37;;;;;;;10.17;9.27;;;16.30;99.90;;;;;;4933546;29;20469;-66
2022/04/27 09:26:22;;;;;;;10.87;9.77;;;16.20;99.90;;;;;;4928747;29;20909;-65
2022/04/27 09:28:49;;;;;;;11.80;10.63;;;16.20;99.90;;;;;;4929723;29;20433;-65
2022/04/27 09:31:35;;;;;;;13.00;11.70;;;16.00;99.90;;;;;;4933566;29;20474;-66
2022/04/27 09:34:02;;;;;;;12.90;11.50;;;15.80;99.90;;;;;;4933804;29;20441;-65
2022/04/27 09:36:29;;;;;;;12.73;11.47;;;15.20;99.90;;;;;;4932946;29;20469;-65
2022/04/27 09:38:57;;;;;;;10.33;9.37;;;15.00;99.90;;;;;;4933525;29;20448;-65
2022/04/27 09:41:45;;;;;;;11.10;9.20;;;15.40;99.90;;;;;;4931086;29;20527;-65
2022/04/27 09:44:30;;;;;;;10.33;9.43;;;15.50;99.90;;;;;;4936046;29;20977;-66
2022/04/27 09:46:56;;;;;;;11.17;10.07;;;15.50;99.90;;;;;;4931735;29;20516;-65
2022/04/27 09:49:21;;;;;;;9.40;8.50;;;15.60;99.90;;;;;;4932722;29;20516;-64
2022/04/27 09:51:50;;;;;;;11.77;10.57;;;15.50;99.90;;;;;;4933422;29;20193;-65
2022/04/27 09:54:21;;;;;;;9.87;8.97;;;15.50;99.90;;;;;;4934258;29;20550;-64
2022/04/27 09:56:58;;;;;;;12.30;9.10;;;15.60;99.90;;;;;;4934066;29;20570;-64
2022/04/27 09:59:29;;;;;;;12.03;10.80;;;15.70;99.90;;;;;;4932333;29;20488;-65
2022/04/27 10:02:00;;;;;;;17.03;15.27;;;15.50;99.90;;;;;;4930066;29;20981;-65
2022/04/27 10:04:31;;;;;;;13.90;12.37;;;15.20;99.90;;;;;;4927680;29;20477;-65
2022/04/27 10:07:01;;;;;;;13.53;9.67;;;15.60;99.90;;;;;;4933798;29;20461;-65
2022/04/27 10:09:30;;;;;;;10.70;8.50;;;15.40;99.90;;;;;;4933981;29;20546;-63
2022/04/27 10:11:58;;;;;;;8.03;7.23;;;15.50;99.90;;;;;;4936202;29;20430;-63
2022/04/27 10:14:25;;;;;;;9.60;8.37;;;15.30;99.90;;;;;;4934646;29;20494;-61
2022/04/27 10:16:51;;;;;;;7.70;7.10;;;14.90;99.90;;;;;;4934402;29;20468;-63
2022/04/27 10:19:17;;;;;;;9.10;8.17;;;15.00;99.90;;;;;;4931406;29;20453;-63
2022/04/27 10:21:56;;;;;;;7.53;6.77;;;15.20;99.90;;;;;;4932562;29;20178;-64
2022/04/27 10:24:34;;;;;;;6.40;5.90;;;15.40;99.90;;;;;;4933565;29;20449;-65
2022/04/27 10:27:19;;;;;;;5.40;4.90;;;15.90;99.90;;;;;;4934495;29;20477;-63
2022/04/27 10:29:51;;;;;;;6.33;5.77;;;16.20;99.90;;;;;;4933051;29;20457;-63
2022/04/27 10:32:41;;;;;;;5.63;5.13;;;16.20;99.90;;;;;;4934011;29;20446;-63
2022/04/27 10:35:12;;;;;;;6.97;6.17;;;16.50;99.90;;;;;;4930930;29;20441;-63
2022/04/27 10:37:54;;;;;;;6.03;5.53;;;16.60;99.90;;;;;;4931838;29;20437;-66
2022/04/27 10:40:41;;;;;;;6.93;6.33;;;16.50;99.90;;;;;;4932143;29;20473;-66
2022/04/27 10:43:07;;;;;;;6.57;5.97;;;16.20;99.90;;;;;;4924480;29;20445;-66
2022/04/27 10:45:41;;;;;;;8.20;5.70;;;15.90;99.90;;;;;;4930370;29;21011;-66
2022/04/27 10:48:23;;;;;;;6.70;6.10;;;15.70;99.90;;;;;;4929257;29;20733;-66
2022/04/27 10:51:03;;;;;;;7.00;6.30;;;15.30;99.90;;;;;;4934287;29;20959;-65
2022/04/27 10:53:39;;;;;;;7.23;6.63;;;15.20;99.90;;;;;;4930119;29;20453;-66
2022/04/27 10:56:20;;;;;;;6.40;5.90;;;15.20;99.90;;;;;;4928213;29;20465;-65
2022/04/27 10:58:46;;;;;;;6.00;5.43;;;14.80;99.90;;;;;;4913767;29;20533;-65
2022/04/27 11:01:11;;;;;;;6.40;5.90;;;14.40;99.90;;;;;;4932526;29;20480;-66
2022/04/27 11:03:38;;;;;;;5.70;5.30;;;14.20;99.90;;;;;;4928602;29;20174;-66
2022/04/27 11:06:13;;;;;;;7.03;6.47;;;14.20;99.90;;;;;;4934299;29;20592;-65
2022/04/27 11:09:04;;;;;;;6.17;5.73;;;14.30;99.90;;;;;;4929044;29;20516;-65
2022/04/27 11:11:31;;;;;;;6.27;5.77;;;14.30;99.90;;;;;;4928476;29;20441;-65
2022/04/27 11:14:06;;;;;;;5.73;5.33;;;14.20;99.90;;;;;;4928556;29;20436;-66
2022/04/27 11:16:44;;;;;;;6.03;5.57;;;14.10;99.90;;;;;;4925674;29;20463;-65
2022/04/27 11:19:09;;;;;;;5.63;5.13;;;14.10;99.90;;;;;;4925922;29;20445;-65
2022/04/27 11:21:35;;;;;;;5.80;5.30;;;14.20;99.90;;;;;;4927914;29;20449;-62
2022/04/27 11:24:05;;;;;;;6.17;5.67;;;14.20;99.90;;;;;;4929202;29;20668;-65
2022/04/27 11:26:39;;;;;;;6.17;5.30;;;14.40;99.90;;;;;;4925679;29;20209;-66
2022/04/27 11:29:06;;;;;;;5.47;4.97;;;14.70;99.90;;;;;;4929794;29;20771;-65
2022/04/27 11:31:33;;;;;;;5.43;5.03;;;14.80;99.90;;;;;;4934944;29;20445;-66
2022/04/27 11:33:58;;;;;;;5.40;5.00;;;15.00;99.90;;;;;;4932092;29;20437;-65
2022/04/27 11:36:27;;;;;;;5.97;5.37;;;15.40;99.90;;;;;;4936586;29;20456;-63
2022/04/27 11:38:53;;;;;;;4.93;4.53;;;15.70;99.90;;;;;;4931561;29;20181;-66
2022/04/27 11:41:21;;;;;;;6.07;5.57;;;16.40;99.90;;;;;;4927202;29;20533;-65
2022/04/27 11:43:47;;;;;;;6.40;5.90;;;17.50;99.90;;;;;;4928794;29;20437;-66
2022/04/27 11:46:13;;;;;;;6.00;5.50;;;18.40;99.90;;;;;;4930379;29;20810;-65
2022/04/27 11:48:39;;;;;;;6.60;6.10;;;20.40;98.60;;;;;;4930304;29;21014;-66
2022/04/27 11:51:06;;;;;;;6.20;5.80;;;21.80;93.50;;;;;;4931444;29;20283;-65
2022/04/27 11:53:46;;;;;;;5.20;4.70;;;21.10;92.70;;;;;;4929369;29;20216;-65
2022/04/27 11:56:12;;;;;;;5.90;5.50;;;20.90;92.90;;;;;;4930222;29;20478;-65
2022/04/27 11:58:38;;;;;;;6.17;5.67;;;20.80;92.20;;;;;;4929085;29;20973;-66
2022/04/27 12:01:04;;;;;;;6.40;5.90;;;21.70;91.60;;;;;;4932304;29;20296;-66
2022/04/27 12:03:30;;;;;;;5.90;5.50;;;22.90;88.10;;;;;;4931250;29;20190;-66
2022/04/27 12:05:56;;;;;;;6.50;6.07;;;24.10;79.00;;;;;;4932971;29;20604;-65
2022/04/27 12:08:24;;;;;;;6.80;6.30;;;25.30;74.40;;;;;;4929536;29;20193;-66
2022/04/27 12:10:50;;;;;;;8.43;5.67;;;25.60;69.10;;;;;;4932964;29;20460;-64
2022/04/27 12:13:20;;;;;;;6.33;5.80;;;25.50;68.00;;;;;;4930225;29;20496;-67
2022/04/27 12:15:51;;;;;;;5.77;5.37;;;25.80;67.80;;;;;;4929246;29;20212;-66
2022/04/27 12:18:21;;;;;;;5.00;4.70;;;27.70;62.30;;;;;;4914830;29;20476;-66
2022/04/27 12:20:48;;;;;;;5.40;5.07;;;27.50;57.60;;;;;;4931140;29;20462;-64
2022/04/27 12:23:19;;;;;;;5.00;4.70;;;26.30;56.40;;;;;;4936007;29;20448;-64
2022/04/27 12:25:49;;;;;;;5.57;5.17;;;24.00;61.40;;;;;;4931684;29;20468;-65
2022/04/27 12:28:16;;;;;;;6.07;5.57;;;22.90;64.30;;;;;;4932833;29;20449;-64
2022/04/27 12:30:56;;;;;;;5.67;5.27;;;24.60;62.10;;;;;;4934847;29;20452;-66
2022/04/27 12:33:27;;;;;;;5.70;5.30;;;25.80;58.70;;;;;;4935043;29;20469;-66
2022/04/27 12:39:08;;;;;;;5.60;5.20;;;25.70;57.70;;;;;;4933337;29;20456;-65
2022/04/27 12:41:43;;;;;;;6.27;5.87;;;24.30;57.80;;;;;;4926927;29;20457;-66
2022/04/27 12:44:14;;;;;;;5.03;4.53;;;24.00;58.90;;;;;;4935753;29;20447;-66
2022/04/27 12:46:58;;;;;;;4.63;4.23;;;24.70;57.40;;;;;;4932272;29;20473;-66
2022/04/27 12:49:29;;;;;;;4.50;4.20;;;24.90;57.20;;;;;;4932601;29;20449;-64
2022/04/27 12:51:57;;;;;;;4.53;4.23;;;25.00;56.50;;;;;;4928817;29;20707;-66
2022/04/27 12:54:36;;;;;;;4.83;4.53;;;25.80;55.50;;;;;;4934408;29;20461;-66